Time;durP1;ratioP1;P1;durP2;ratioP2;P2;SDS_P1;SDS_P2;PMS_P1;PMS_P2;Temp;Humidity;BMP_temperature;BMP_pressure;BME280_temperature;BME280_humidity;BME280_pressure;Samples;Min_cycle;Max_cycle;Signal;HPM_P1;HPM_P2
2022/04/06 04:33:23;;;;;;;;;2.00;1.00;;;;;10.14;62.95;100558.06;5076001;28;45349;-49
2022/04/06 04:35:49;;;;;;;;;0.75;0.75;;;;;10.26;62.74;100553.13;5078216;28;45218;-50
2022/04/06 04:38:14;;;;;;;;;0.75;0.75;;;;;10.32;62.46;100551.00;5078881;28;45426;-49
2022/04/06 04:40:40;;;;;;;;;0.50;0.50;;;;;10.30;62.93;100541.28;5082455;28;45372;-48
2022/04/06 04:43:05;;;;;;;;;1.50;1.00;;;;;10.16;62.68;100523.19;5082265;28;45276;-48
2022/04/06 04:45:30;;;;;;;;;0.00;0.00;;;;;10.33;62.71;100543.84;5082045;28;46268;-52
2022/04/06 04:47:57;;;;;;;;;0.50;0.50;;;;;10.40;62.52;100546.16;5082309;28;45357;-52
2022/04/06 04:50:23;;;;;;;;;0.75;0.75;;;;;10.50;62.00;100538.53;5081740;28;45428;-48
2022/04/06 04:52:48;;;;;;;;;0.75;0.75;;;;;10.46;62.00;100537.81;5081889;28;45297;-52
2022/04/06 04:55:14;;;;;;;;;1.00;1.00;;;;;10.44;61.48;100526.31;5081489;28;46059;-52
2022/04/06 04:57:39;;;;;;;;;1.00;0.00;;;;;10.49;61.89;100532.31;5079952;28;45525;-49
2022/04/06 05:00:08;;;;;;;;;1.00;0.00;;;;;10.50;61.26;100528.69;5080948;28;45383;-52
2022/04/06 05:02:33;;;;;;;;;0.75;0.75;;;;;10.62;61.74;100524.53;5081213;28;45340;-53
2022/04/06 05:04:58;;;;;;;;;1.00;1.00;;;;;10.63;61.36;100525.41;5081240;28;46269;-52
2022/04/06 05:07:24;;;;;;;;;1.00;0.00;;;;;10.47;61.65;100522.59;5081540;28;45283;-50
2022/04/06 05:09:49;;;;;;;;;2.00;1.00;;;;;10.54;61.22;100532.97;5081945;28;45237;-48
2022/04/06 05:12:15;;;;;;;;;1.00;0.00;;;;;10.53;61.46;100527.66;5081835;28;45312;-52
2022/04/06 05:14:41;;;;;;;;;1.00;1.00;;;;;10.49;61.00;100523.38;5081723;28;46139;-52
2022/04/06 05:17:06;;;;;;;;;3.00;1.75;;;;;10.57;61.52;100527.44;5081491;28;45363;-52
2022/04/06 05:19:32;;;;;;;;;1.25;1.00;;;;;10.66;60.88;100514.50;5081402;28;45410;-52
2022/04/06 05:21:59;;;;;;;;;2.75;1.00;;;;;10.60;61.10;100521.94;5081360;28;45269;-54
2022/04/06 05:24:25;;;;;;;;;1.25;1.00;;;;;10.56;61.26;100520.31;5081236;28;46927;-49
2022/04/06 05:26:50;;;;;;;;;0.75;0.75;;;;;10.59;61.23;100528.22;5076114;28;45415;-48
2022/04/06 05:29:16;;;;;;;;;3.00;1.00;;;;;10.57;61.28;100526.56;5081626;28;45331;-52
2022/04/06 05:31:41;;;;;;;;;1.75;1.00;;;;;10.57;61.65;100524.75;5081255;28;45272;-54
2022/04/06 05:34:07;;;;;;;;;1.50;1.25;;;;;10.57;61.27;100532.78;5061982;28;46035;-54
2022/04/06 05:36:32;;;;;;;;;2.00;2.00;;;;;10.48;61.43;100541.28;5079782;28;45315;-53
2022/04/06 05:38:57;;;;;;;;;2.25;2.25;;;;;10.52;61.97;100534.84;5079859;28;45461;-54
2022/04/06 05:41:23;;;;;;;;;2.75;2.00;;;;;10.39;62.57;100547.09;5080516;28;45682;-54
2022/04/06 05:43:48;;;;;;;;;1.25;1.00;;;;;10.33;62.44;100535.81;5080984;28;46174;-52
2022/04/06 05:46:13;;;;;;;;;4.75;3.00;;;;;10.38;62.98;100539.16;5080901;28;45328;-52
2022/04/06 05:48:39;;;;;;;;;2.75;2.00;;;;;10.36;62.83;100549.06;5081052;28;45298;-49
2022/04/06 05:51:05;;;;;;;;;2.00;2.00;;;;;10.38;62.76;100533.78;5080342;28;45320;-48
2022/04/06 05:53:30;;;;;;;;;2.50;2.00;;;;;10.18;63.56;100534.72;5079232;28;46408;-53
2022/04/06 05:55:56;;;;;;;;;4.00;2.00;;;;;10.17;63.75;100531.19;5076993;28;45384;-50
2022/04/06 05:58:21;;;;;;;;;2.25;2.00;;;;;10.10;64.08;100527.03;5081226;28;45404;-53
2022/04/06 06:00:46;;;;;;;;;2.25;2.25;;;;;10.22;64.02;100537.19;5081109;28;45308;-53
2022/04/06 06:03:12;;;;;;;;;1.00;1.00;;;;;10.27;63.68;100533.44;5080619;28;45295;-51
2022/04/06 06:05:38;;;;;;;;;5.00;2.00;;;;;10.33;63.70;100523.28;5081061;28;45405;-52
2022/04/06 06:08:03;;;;;;;;;3.50;2.00;;;;;10.28;63.57;100529.81;5080762;28;45365;-50
2022/04/06 06:10:29;;;;;;;;;4.25;3.00;;;;;10.21;64.12;100527.41;5080903;28;45392;-52
2022/04/06 06:12:54;;;;;;;;;4.75;2.00;;;;;10.09;64.45;100522.59;5080878;28;45343;-52
2022/04/06 06:15:19;;;;;;;;;3.00;2.00;;;;;10.11;64.60;100523.41;5080816;28;45315;-51
2022/04/06 06:17:45;;;;;;;;;2.75;2.50;;;;;10.26;64.08;100523.66;5080620;28;45359;-52
2022/04/06 06:20:10;;;;;;;;;5.00;4.00;;;;;10.28;64.35;100525.31;5080678;28;45403;-53
2022/04/06 06:22:36;;;;;;;;;1.25;1.25;;;;;10.35;64.05;100516.03;5079987;28;45295;-48
2022/04/06 06:25:02;;;;;;;;;9.00;3.00;;;;;10.39;63.38;100520.28;5080703;28;45364;-53
2022/04/06 06:27:27;;;;;;;;;3.75;2.00;;;;;10.35;63.80;100518.72;5080417;28;45213;-53
2022/04/06 06:29:52;;;;;;;;;2.00;2.00;;;;;10.37;63.45;100522.19;5080577;28;45158;-51
2022/04/06 06:32:18;;;;;;;;;4.00;3.00;;;;;10.40;63.50;100510.44;5079929;28;45333;-52
2022/04/06 06:34:44;;;;;;;;;3.00;3.00;;;;;10.32;63.43;100509.94;5080356;28;45427;-50
2022/04/06 06:37:10;;;;;;;;;3.50;3.00;;;;;10.27;63.68;100510.19;5080480;28;45387;-54
2022/04/06 06:39:36;;;;;;;;;5.00;2.00;;;;;10.24;63.80;100510.31;5080270;28;45493;-53
2022/04/06 06:42:06;;;;;;;;;2.00;2.00;;;;;10.34;63.72;100508.94;5080354;28;46102;-55
2022/04/06 06:44:31;;;;;;;;;4.00;2.00;;;;;10.41;63.43;100512.19;5080495;28;45347;-53
2022/04/06 06:46:56;;;;;;;;;4.00;3.00;;;;;10.53;63.31;100517.81;5080316;28;45178;-55
2022/04/06 06:49:22;;;;;;;;;2.00;2.00;;;;;10.43;62.81;100518.34;5080278;28;45565;-53
2022/04/06 06:51:47;;;;;;;;;2.75;2.00;;;;;10.41;62.99;100522.91;5080177;28;46177;-54
2022/04/06 06:54:12;;;;;;;;;4.00;2.00;;;;;10.30;63.35;100515.38;5080050;28;45299;-52
2022/04/06 06:56:38;;;;;;;;;2.75;1.75;;;;;10.36;63.23;100515.09;5080380;28;45345;-52
2022/04/06 06:59:03;;;;;;;;;2.25;1.25;;;;;10.43;62.92;100508.50;5080280;28;45279;-53
2022/04/06 07:01:28;;;;;;;;;1.00;0.00;;;;;10.47;62.78;100504.69;5079840;28;45959;-52
2022/04/06 07:03:54;;;;;;;;;0.50;0.50;;;;;10.48;62.99;100509.13;5080011;28;45293;-50
2022/04/06 07:06:19;;;;;;;;;1.00;1.00;;;;;10.34;63.51;100508.06;5080093;28;45506;-52
2022/04/06 07:08:44;;;;;;;;;1.00;1.00;;;;;10.32;63.70;100500.09;5079906;28;45434;-51
2022/04/06 07:11:10;;;;;;;;;2.00;2.00;;;;;10.32;63.40;100493.88;5079846;28;45217;-54
2022/04/06 07:13:36;;;;;;;;;6.00;2.00;;;;;10.43;63.08;100496.91;5080180;28;45316;-50
2022/04/06 07:16:02;;;;;;;;;2.00;2.00;;;;;10.46;63.30;100488.72;5079949;28;45450;-51
2022/04/06 07:18:29;;;;;;;;;3.00;2.00;;;;;10.48;63.14;100498.41;5079713;28;45328;-52
2022/04/06 07:20:54;;;;;;;;;2.00;1.00;;;;;10.59;63.00;100488.03;5079473;28;46894;-51
2022/04/06 07:23:20;;;;;;;;;3.00;2.00;;;;;10.71;62.49;100483.88;5079319;28;45342;-51
2022/04/06 07:25:45;;;;;;;;;2.25;2.00;;;;;10.75;62.21;100489.94;5078421;28;45525;-51
2022/04/06 07:28:10;;;;;;;;;1.75;1.75;;;;;10.80;62.11;100486.06;5079676;28;45363;-51
2022/04/06 07:30:36;;;;;;;;;2.75;2.00;;;;;10.71;62.12;100483.88;5079569;28;46992;-52
2022/04/06 07:33:02;;;;;;;;;3.00;1.00;;;;;10.80;62.28;100487.91;5079090;28;45379;-51
2022/04/06 07:35:28;;;;;;;;;1.25;1.25;;;;;10.87;61.92;100478.59;5079678;28;45430;-53
2022/04/06 07:37:53;;;;;;;;;3.75;1.25;;;;;10.96;61.13;100476.31;5079083;28;45341;-52
2022/04/06 07:40:21;;;;;;;;;2.50;1.00;;;;;10.96;60.93;100483.47;5079158;28;45396;-49
2022/04/06 07:42:49;;;;;;;;;3.00;1.00;;;;;10.98;61.27;100478.88;5079150;28;45351;-50
2022/04/06 07:45:18;;;;;;;;;1.00;1.00;;;;;11.12;61.33;100483.53;5079500;28;45375;-49
2022/04/06 07:47:48;;;;;;;;;1.00;1.00;;;;;11.23;60.86;100483.81;5079124;28;45348;-52
2022/04/06 07:50:15;;;;;;;;;1.25;1.00;;;;;11.22;60.42;100483.00;5079093;28;46309;-48
2022/04/06 07:52:42;;;;;;;;;4.00;1.00;;;;;11.09;60.52;100481.88;5079210;28;45438;-50
2022/04/06 07:55:09;;;;;;;;;1.00;1.00;;;;;10.98;60.93;100476.19;5079050;28;45256;-52
2022/04/06 07:57:35;;;;;;;;;1.75;1.00;;;;;11.00;61.35;100469.81;5079132;28;45396;-53
2022/04/06 08:00:15;;;;;;;;;2.00;2.00;;;;;11.03;61.34;100471.47;5079025;28;45330;-50
2022/04/06 08:02:41;;;;;;;;;4.00;1.00;;;;;11.12;60.82;100467.44;5078915;28;45268;-49
2022/04/06 08:05:07;;;;;;;;;8.75;1.75;;;;;11.23;60.33;100468.59;5079220;28;45367;-52
2022/04/06 08:07:33;;;;;;;;;1.25;1.25;;;;;11.21;61.01;100459.78;5078789;28;45430;-49
2022/04/06 08:09:59;;;;;;;;;4.00;3.00;;;;;11.23;60.71;100460.53;5078997;28;45277;-50
2022/04/06 08:12:24;;;;;;;;;3.00;3.00;;;;;11.30;60.37;100456.63;5079168;28;45327;-53
2022/04/06 08:14:50;;;;;;;;;1.00;1.00;;;;;11.43;60.45;100451.44;5081790;28;45229;-51
2022/04/06 08:17:16;;;;;;;;;1.00;1.00;;;;;11.43;59.91;100451.44;5082364;28;45470;-49
2022/04/06 08:19:41;;;;;;;;;1.00;1.00;;;;;11.34;60.33;100447.44;5082283;28;46275;-52
2022/04/06 08:22:07;;;;;;;;;2.75;1.00;;;;;11.42;60.28;100449.69;5082298;28;45330;-49
2022/04/06 08:24:33;;;;;;;;;4.25;3.00;;;;;11.50;60.07;100452.84;5082456;28;45398;-49
2022/04/06 08:26:59;;;;;;;;;1.25;1.25;;;;;11.36;60.03;100455.41;5082200;28;45498;-51
2022/04/06 08:29:24;;;;;;;;;1.00;1.00;;;;;11.40;60.51;100450.75;5082235;28;46015;-49
2022/04/06 08:31:49;;;;;;;;;1.00;1.00;;;;;11.40;59.85;100443.53;5082284;28;45521;-52
2022/04/06 08:34:15;;;;;;;;;3.00;1.75;;;;;11.36;60.13;100442.00;5082278;28;45391;-50
2022/04/06 08:36:43;;;;;;;;;2.50;0.75;;;;;11.33;60.41;100453.75;5082203;28;45543;-50
2022/04/06 08:39:09;;;;;;;;;2.00;1.00;;;;;11.34;60.42;100443.88;5081806;28;45281;-51
2022/04/06 08:41:35;;;;;;;;;4.00;2.00;;;;;11.40;60.47;100435.50;5082159;28;45546;-50
2022/04/06 08:44:01;;;;;;;;;3.50;1.00;;;;;11.46;59.86;100437.88;5082089;28;45228;-54
2022/04/06 08:46:34;;;;;;;;;3.00;2.00;;;;;11.44;60.01;100425.47;5082024;28;45293;-48
2022/04/06 08:49:00;;;;;;;;;4.00;2.00;;;;;11.65;59.42;100440.41;5081551;28;47292;-50
2022/04/06 08:51:28;;;;;;;;;3.00;2.00;;;;;11.70;59.12;100438.31;5082013;28;45241;-50
2022/04/06 08:53:53;;;;;;;;;1.50;1.00;;;;;11.64;59.58;100441.38;5081518;28;45400;-49
2022/04/06 08:56:19;;;;;;;;;1.50;1.50;;;;;11.51;59.53;100421.50;5082012;28;45364;-50
2022/04/06 08:58:44;;;;;;;;;3.00;1.00;;;;;11.58;59.75;100434.50;5081668;28;45385;-50
2022/04/06 09:01:09;;;;;;;;;4.25;1.25;;;;;11.47;59.47;100431.53;5081756;28;45311;-52
2022/04/06 09:03:35;;;;;;;;;1.75;1.00;;;;;11.55;59.73;100432.00;5081379;28;45732;-52
2022/04/06 09:06:01;;;;;;;;;3.25;1.25;;;;;11.59;59.67;100430.00;5081736;28;45426;-49
2022/04/06 09:08:48;;;;;;;;;2.00;2.00;;;;;11.62;59.41;100417.28;5081292;28;46149;-52
2022/04/06 09:11:20;;;;;;;;;3.75;2.25;;;;;11.56;59.37;100433.72;5081724;28;45321;-50
2022/04/06 09:13:48;;;;;;;;;4.00;2.25;;;;;11.69;59.77;100425.84;5081935;28;45409;-51
2022/04/06 09:16:17;;;;;;;;;4.25;3.00;;;;;11.88;58.94;100425.72;5081484;28;45450;-51
2022/04/06 09:18:45;;;;;;;;;6.75;3.00;;;;;11.99;58.40;100426.00;5081355;28;45823;-49
2022/04/06 09:21:12;;;;;;;;;5.00;2.00;;;;;11.92;58.76;100424.59;5081581;28;45437;-54
2022/04/06 09:23:38;;;;;;;;;2.50;2.00;;;;;11.96;58.64;100428.84;5081231;28;45299;-50
2022/04/06 09:26:06;;;;;;;;;3.50;2.75;;;;;11.92;58.73;100424.59;5080017;28;45272;-49
2022/04/06 09:28:32;;;;;;;;;3.00;2.00;;;;;11.90;58.77;100426.53;5081388;28;46203;-49
2022/04/06 09:30:58;;;;;;;;;3.25;2.00;;;;;11.83;58.57;100427.78;5081300;28;45374;-48
2022/04/06 09:33:28;;;;;;;;;1.00;1.00;;;;;11.90;59.08;100427.38;5063149;28;45340;-53
2022/04/06 09:35:55;;;;;;;;;2.50;2.50;;;;;11.77;59.06;100422.78;5060878;28;45692;-49
2022/04/06 09:38:26;;;;;;;;;5.00;3.50;;;;;11.92;58.86;100427.28;5060646;28;47049;-48
2022/04/06 09:41:06;;;;;;;;;2.00;2.00;;;;;12.00;58.43;100420.50;5060902;28;45404;-47
2022/04/06 09:43:35;;;;;;;;;1.75;1.75;;;;;12.10;57.72;100432.47;5060750;28;45483;-51
2022/04/06 09:49:08;;;;;;;;;2.75;2.00;;;;;12.02;57.58;100417.75;5060292;28;45912;-50
2022/04/06 09:51:37;;;;;;;;;4.50;3.00;;;;;12.02;57.79;100425.81;5060674;28;45341;-52
2022/04/06 09:54:05;;;;;;;;;2.75;2.75;;;;;12.01;58.07;100411.50;5060537;28;45280;-50
2022/04/06 09:56:32;;;;;;;;;5.75;3.25;;;;;12.09;57.72;100421.81;5060417;28;45392;-50
2022/04/06 09:58:59;;;;;;;;;2.75;1.25;;;;;12.03;58.33;100427.53;5060775;28;45315;-52
2022/04/06 10:01:39;;;;;;;;;2.50;2.00;;;;;12.05;57.83;100431.88;5060604;28;45344;-51
2022/04/06 10:04:07;;;;;;;;;2.50;0.00;;;;;11.88;58.60;100420.34;5060484;28;45392;-50
2022/04/06 10:06:37;;;;;;;;;3.25;2.00;;;;;11.81;58.99;100427.91;5060487;28;45281;-51
2022/04/06 10:09:08;;;;;;;;;6.25;2.00;;;;;11.90;58.38;100421.16;5060022;28;46286;-51
2022/04/06 10:11:35;;;;;;;;;4.50;3.00;;;;;11.90;58.45;100424.69;5060205;28;45330;-49
2022/04/06 10:14:04;;;;;;;;;6.00;3.75;;;;;12.02;58.34;100410.56;5060471;28;45316;-52
2022/04/06 10:16:30;;;;;;;;;2.50;2.50;;;;;12.20;57.81;100402.38;5060228;28;45435;-50
2022/04/06 10:18:57;;;;;;;;;1.00;0.00;;;;;12.26;57.39;100396.66;5059966;28;46407;-52
2022/04/06 10:22:00;;;;;;;;;6.25;3.00;;;;;12.41;57.15;100393.09;5060124;28;45409;-52
2022/04/06 10:25:03;;;;;;;;;2.75;2.75;;;;;12.64;56.22;100391.72;5056707;28;45358;-51
2022/04/06 10:27:35;;;;;;;;;3.75;3.75;;;;;12.60;56.82;100391.00;5059690;28;45383;-50
2022/04/06 10:30:23;;;;;;;;;3.50;3.50;;;;;12.65;55.89;100388.94;5060017;28;45272;-52
2022/04/06 10:32:50;;;;;;;;;2.75;2.75;;;;;12.73;56.36;100391.16;5072812;28;45410;-52
2022/04/06 10:35:17;;;;;;;;;7.00;5.00;;;;;12.89;55.61;100384.75;5062170;28;45390;-51
2022/04/06 10:37:53;;;;;;;;;2.50;2.50;;;;;12.87;55.56;100383.97;5079475;28;46107;-52
2022/04/06 10:40:19;;;;;;;;;3.00;3.00;;;;;12.73;55.61;100369.63;5079403;28;46093;-47
2022/04/06 10:42:46;;;;;;;;;3.50;3.50;;;;;12.86;56.12;100371.47;5079978;28;45242;-50
2022/04/06 10:45:29;;;;;;;;;6.00;2.25;;;;;12.73;56.02;100364.25;5079518;28;45502;-48
2022/04/06 10:48:16;;;;;;;;;5.00;3.75;;;;;12.88;55.81;100387.53;5079838;28;45283;-49
2022/04/06 10:50:43;;;;;;;;;10.25;4.00;;;;;12.93;56.03;100368.44;5079368;28;46179;-51
2022/04/06 10:53:18;;;;;;;;;4.50;3.75;;;;;12.87;56.26;100365.13;5078983;28;45678;-49
2022/04/06 10:56:04;;;;;;;;;5.25;3.75;;;;;12.85;56.41;100366.19;5079667;28;45307;-49
2022/04/06 10:58:55;;;;;;;;;4.00;4.00;;;;;12.84;56.39;100345.66;5078860;28;45414;-52
2022/04/06 11:01:26;;;;;;;;;6.50;3.00;;;;;12.83;56.84;100346.59;5079861;28;45289;-52
2022/04/06 11:03:59;;;;;;;;;8.25;4.00;;;;;12.90;57.00;100318.34;5079603;28;45324;-53
2022/04/06 11:06:44;;;;;;;;;6.00;5.00;;;;;12.94;56.38;100340.53;5079850;28;45423;-52
2022/04/06 11:12:13;;;;;;;;;6.50;6.50;;;;;12.96;56.85;100326.03;5079502;28;45251;-50
2022/04/06 11:14:40;;;;;;;;;5.00;5.00;;;;;13.06;56.50;100313.75;5079531;28;45490;-50
2022/04/06 11:17:32;;;;;;;;;4.00;4.00;;;;;13.17;56.54;100315.78;5079706;28;45327;-53
2022/04/06 11:20:02;;;;;;;;;5.75;4.25;;;;;13.29;56.24;100320.38;5078772;28;45626;-50
2022/04/06 11:22:28;;;;;;;;;4.00;3.00;;;;;13.32;56.95;100317.50;5079139;28;45303;-51
2022/04/06 11:24:56;;;;;;;;;12.00;6.25;;;;;13.44;56.75;100310.47;5079741;28;45387;-50
2022/04/06 11:27:41;;;;;;;;;6.25;6.00;;;;;13.36;56.58;100310.09;5074441;28;46312;-49
2022/04/06 11:30:27;;;;;;;;;7.25;5.25;;;;;13.38;56.45;100305.47;5079548;28;45300;-47
2022/04/06 11:32:56;;;;;;;;;6.00;3.25;;;;;13.33;56.41;100296.84;5078775;28;47308;-51
2022/04/06 11:35:35;;;;;;;;;2.25;1.00;;;;;13.33;56.68;100288.75;5079307;28;45414;-49
2022/04/06 11:38:03;;;;;;;;;8.00;7.25;;;;;13.42;56.49;100286.34;5079287;28;45369;-49
2022/04/06 11:40:30;;;;;;;;;5.00;4.00;;;;;13.49;56.08;100267.94;5079234;28;45331;-49
2022/04/06 11:42:57;;;;;;;;;7.00;5.75;;;;;13.68;55.79;100267.59;5079263;28;45995;-51
2022/04/06 11:45:27;;;;;;;;;4.00;4.00;;;;;13.89;54.98;100255.38;5079436;28;45344;-50
2022/04/06 11:47:56;;;;;;;;;9.00;4.00;;;;;13.95;54.55;100257.69;5078586;28;45347;-53
2022/04/06 11:50:28;;;;;;;;;4.75;3.25;;;;;13.87;54.45;100236.63;5078986;28;45506;-50
2022/04/06 11:52:54;;;;;;;;;4.25;4.00;;;;;14.09;54.05;100246.81;5079036;28;46379;-49
2022/04/06 11:55:19;;;;;;;;;6.25;5.25;;;;;14.29;54.00;100238.22;5078904;28;45374;-51
2022/04/06 11:57:48;;;;;;;;;6.50;4.75;;;;;14.46;53.85;100242.47;5079118;28;45325;-51
2022/04/06 12:00:16;;;;;;;;;7.50;5.75;;;;;14.62;53.16;100231.50;5078967;28;45421;-50
2022/04/06 12:02:57;;;;;;;;;7.00;4.00;;;;;14.76;52.42;100237.63;5078873;28;45339;-50
2022/04/06 12:05:24;;;;;;;;;3.50;3.50;;;;;14.51;52.67;100216.06;5078897;28;45365;-50
2022/04/06 12:08:13;;;;;;;;;5.00;3.00;;;;;14.59;53.21;100232.56;5078751;28;45257;-51
2022/04/06 12:10:50;;;;;;;;;8.25;5.00;;;;;14.36;53.11;100239.53;5078890;28;45341;-51
2022/04/06 12:13:17;;;;;;;;;7.00;4.00;;;;;14.13;53.54;100221.38;5078856;28;46446;-50
2022/04/06 12:15:43;;;;;;;;;4.50;3.25;;;;;14.00;53.60;100236.66;5078905;28;45363;-49
2022/04/06 12:18:09;;;;;;;;;5.25;4.00;;;;;14.00;54.20;100213.28;5078909;28;45269;-50
2022/04/06 12:20:34;;;;;;;;;4.50;4.00;;;;;14.12;53.51;100227.72;5078807;28;45190;-52
2022/04/06 12:23:04;;;;;;;;;4.25;2.25;;;;;14.18;53.97;100207.59;5078357;28;46168;-49
2022/04/06 12:25:31;;;;;;;;;6.75;4.00;;;;;14.22;53.87;100218.03;5078899;28;45359;-50
2022/04/06 12:28:17;;;;;;;;;4.00;4.00;;;;;14.34;53.51;100211.81;5079014;28;45388;-49
2022/04/06 12:31:10;;;;;;;;;4.50;4.50;;;;;14.43;52.68;100220.25;5078749;28;45939;-49
2022/04/06 12:33:47;;;;;;;;;7.00;4.75;;;;;14.43;52.91;100201.38;5076037;28;46344;-50
2022/04/06 12:36:14;;;;;;;;;3.00;3.00;;;;;14.55;53.08;100206.75;5078565;28;45589;-52
2022/04/06 12:38:42;;;;;;;;;4.50;3.50;;;;;14.56;52.53;100213.88;5078634;28;45250;-50
2022/04/06 12:41:13;;;;;;;;;4.75;3.50;;;;;14.59;52.98;100205.56;5078555;28;45409;-50
2022/04/06 12:43:46;;;;;;;;;5.00;5.00;;;;;14.57;53.09;100199.41;5078324;28;46324;-52
2022/04/06 12:46:12;;;;;;;;;4.25;3.25;;;;;14.47;52.67;100200.19;5078629;28;45295;-53
2022/04/06 12:48:37;;;;;;;;;4.25;4.25;;;;;14.36;53.09;100193.69;5078540;28;45370;-50
2022/04/06 12:51:21;;;;;;;;;9.00;5.00;;;;;14.43;53.20;100199.53;5078552;28;45245;-50
2022/04/06 12:53:51;;;;;;;;;7.25;4.75;;;;;14.26;53.26;100197.13;5077948;28;46079;-49
2022/04/06 12:56:22;;;;;;;;;5.50;5.25;;;;;14.17;53.66;100190.53;5078503;28;45399;-52
2022/04/06 12:59:06;;;;;;;;;6.75;5.25;;;;;14.22;53.76;100180.28;5078451;28;45383;-51
2022/04/06 13:01:31;;;;;;;;;2.75;1.00;;;;;14.06;53.83;100168.84;5081834;28;45566;-54
2022/04/06 13:03:57;;;;;;;;;6.25;4.00;;;;;14.18;53.96;100175.25;5081793;28;45459;-52
2022/04/06 13:06:22;;;;;;;;;4.75;4.75;;;;;14.13;53.72;100172.84;5081483;28;45295;-51
2022/04/06 13:08:48;;;;;;;;;4.50;4.00;;;;;14.13;53.91;100169.28;5081586;28;45273;-52
2022/04/06 13:11:13;;;;;;;;;3.75;3.00;;;;;14.10;53.72;100167.69;5081488;28;45568;-51
2022/04/06 13:13:38;;;;;;;;;3.50;2.50;;;;;14.13;53.52;100161.19;5081820;28;45498;-50
2022/04/06 13:16:04;;;;;;;;;6.00;4.75;;;;;14.25;53.38;100158.53;5081702;28;45351;-53
2022/04/06 13:18:29;;;;;;;;;4.75;3.75;;;;;14.40;53.40;100151.22;5081897;28;45331;-50
2022/04/06 13:20:54;;;;;;;;;5.75;3.00;;;;;14.54;52.49;100152.94;5081325;28;46089;-51
2022/04/06 13:23:20;;;;;;;;;5.25;5.25;;;;;14.66;51.62;100139.41;5081002;28;47987;-52
2022/04/06 13:25:45;;;;;;;;;4.00;4.00;;;;;15.08;51.71;100142.63;5081172;28;45276;-49
2022/04/06 13:28:13;;;;;;;;;4.00;3.75;;;;;14.82;50.89;100149.09;5081553;28;45461;-53
2022/04/06 13:30:39;;;;;;;;;6.00;3.00;;;;;14.95;51.09;100122.94;5081380;28;46120;-52
2022/04/06 13:33:04;;;;;;;;;6.75;4.00;;;;;14.88;50.72;100136.03;5081034;28;46113;-51
2022/04/06 13:35:30;;;;;;;;;5.00;5.00;;;;;14.87;50.86;100136.13;5081338;28;45435;-52
2022/04/06 13:37:55;;;;;;;;;5.75;4.50;;;;;15.00;50.63;100124.31;5081354;28;45352;-50
2022/04/06 13:40:20;;;;;;;;;4.00;4.00;;;;;15.10;49.66;100122.66;5081336;28;45504;-49
2022/04/06 13:42:46;;;;;;;;;1.00;1.00;;;;;15.45;49.20;100114.63;5081362;28;45814;-48
2022/04/06 13:45:11;;;;;;;;;4.00;2.00;;;;;16.35;46.45;100102.16;5081055;28;45331;-51
2022/04/06 13:47:36;;;;;;;;;3.00;3.00;;;;;16.87;45.35;100125.91;5081339;28;45323;-53
2022/04/06 13:50:03;;;;;;;;;3.50;2.25;;;;;16.93;44.68;100092.03;5081135;28;45382;-52
2022/04/06 13:52:29;;;;;;;;;3.00;3.00;;;;;17.00;44.88;100085.16;5080655;28;47010;-52
2022/04/06 13:54:56;;;;;;;;;4.00;3.00;;;;;17.01;44.47;100090.44;5080806;28;45399;-48
2022/04/06 13:57:22;;;;;;;;;3.00;3.00;;;;;16.81;45.14;100083.09;5067907;28;45249;-50
2022/04/06 13:59:47;;;;;;;;;4.75;3.00;;;;;16.45;45.66;100081.50;5080822;28;45316;-50
2022/04/06 14:02:13;;;;;;;;;4.50;3.25;;;;;16.20;46.67;100074.50;5080601;28;47101;-51
2022/04/06 14:04:39;;;;;;;;;4.50;2.75;;;;;15.96;47.22;100086.41;5081074;28;45256;-51
2022/04/06 14:07:05;;;;;;;;;3.50;3.50;;;;;15.58;47.86;100073.16;5080646;28;45312;-50
2022/04/06 14:09:30;;;;;;;;;2.50;2.00;;;;;15.50;48.02;100071.88;5080662;28;45531;-51
2022/04/06 14:11:57;;;;;;;;;3.25;1.75;;;;;15.71;47.29;100079.34;5080223;28;45343;-50
2022/04/06 14:14:22;;;;;;;;;3.00;1.50;;;;;15.70;46.83;100069.53;5080625;28;45273;-54
2022/04/06 14:16:48;;;;;;;;;3.00;1.00;;;;;15.56;47.27;100057.09;5081013;28;45376;-52
2022/04/06 14:19:13;;;;;;;;;2.00;2.00;;;;;15.33;48.28;100060.66;5080569;28;45260;-50
2022/04/06 14:21:39;;;;;;;;;3.50;2.50;;;;;15.25;48.82;100061.22;5080597;28;46514;-51
2022/04/06 14:24:07;;;;;;;;;2.25;2.00;;;;;15.00;49.30;100070.31;5080246;28;45427;-53
2022/04/06 14:26:33;;;;;;;;;1.25;1.25;;;;;14.57;50.39;100059.16;5075316;28;45272;-52
2022/04/06 14:28:59;;;;;;;;;2.25;1.00;;;;;14.38;50.73;100061.41;5080700;28;45290;-50
2022/04/06 14:31:25;;;;;;;;;3.75;2.00;;;;;14.19;51.47;100074.53;5080382;28;45333;-48
2022/04/06 14:33:51;;;;;;;;;2.00;1.00;;;;;14.03;51.95;100053.19;5080331;28;45367;-51
2022/04/06 14:36:16;;;;;;;;;2.00;2.00;;;;;13.92;51.87;100062.03;5080678;28;45339;-48
2022/04/06 14:38:41;;;;;;;;;1.00;1.00;;;;;13.96;52.41;100052.75;5080162;28;45336;-53
2022/04/06 14:41:09;;;;;;;;;2.00;2.00;;;;;13.91;52.53;100038.75;5080341;28;45335;-51
2022/04/06 14:43:35;;;;;;;;;2.00;2.00;;;;;14.05;51.94;100037.75;5080272;28;45363;-49
2022/04/06 14:46:03;;;;;;;;;2.00;2.00;;;;;14.11;51.83;100031.09;5080417;28;45335;-51
2022/04/06 14:48:28;;;;;;;;;2.00;2.00;;;;;13.98;52.11;100028.38;5079981;28;46461;-50
2022/04/06 14:50:54;;;;;;;;;2.50;2.00;;;;;14.06;52.15;100039.47;5080340;28;47091;-49
2022/04/06 14:53:20;;;;;;;;;1.25;0.25;;;;;14.07;52.26;100026.88;5079869;28;45363;-51
2022/04/06 14:55:45;;;;;;;;;3.50;3.00;;;;;14.24;51.98;100013.91;5074316;28;45354;-51
2022/04/06 14:58:13;;;;;;;;;1.25;1.25;;;;;14.23;51.58;99998.69;5079684;28;45375;-52
2022/04/06 15:00:40;;;;;;;;;3.00;2.00;;;;;14.37;51.66;99986.91;5079328;28;45276;-49
2022/04/06 15:03:06;;;;;;;;;2.25;2.25;;;;;14.39;52.00;99988.53;5079949;28;45319;-51
2022/04/06 15:05:33;;;;;;;;;2.50;2.25;;;;;14.31;52.53;100001.69;5080152;28;45343;-51
2022/04/06 15:07:59;;;;;;;;;2.00;2.00;;;;;14.26;52.67;99986.84;5079565;28;45545;-51
2022/04/06 15:10:25;;;;;;;;;2.75;1.75;;;;;14.20;52.33;99954.94;5079702;28;45277;-52
2022/04/06 15:12:50;;;;;;;;;2.25;2.25;;;;;14.23;52.58;99976.25;5079785;28;45343;-53
2022/04/06 15:15:17;;;;;;;;;2.75;2.25;;;;;14.60;52.10;99974.44;5079808;28;45301;-50
2022/04/06 15:17:42;;;;;;;;;2.00;2.00;;;;;14.94;51.06;99994.34;5079594;28;45488;-53
2022/04/06 15:20:10;;;;;;;;;2.75;2.00;;;;;15.14;50.51;99974.81;5079684;28;46276;-49
2022/04/06 15:22:35;;;;;;;;;2.75;1.00;;;;;15.21;50.05;99978.75;5078508;28;45421;-49
2022/04/06 15:25:04;;;;;;;;;2.75;2.75;;;;;15.20;50.00;99955.44;5079497;28;45268;-52
2022/04/06 15:27:30;;;;;;;;;2.00;1.00;;;;;15.19;50.27;99959.09;5079417;28;45406;-51
2022/04/06 15:29:56;;;;;;;;;0.75;0.75;;;;;15.10;49.97;99960.69;5079597;28;45338;-51
2022/04/06 15:32:21;;;;;;;;;2.50;2.50;;;;;15.00;50.13;99973.16;5079177;28;45355;-51
2022/04/06 15:37:30;;;;;;;;;2.00;2.00;;;;;15.06;50.62;99978.06;5078992;28;45510;-53
2022/04/06 15:39:58;;;;;;;;;4.75;1.00;;;;;14.79;50.97;99982.88;5079179;28;46252;-48
2022/04/06 15:42:26;;;;;;;;;3.25;1.00;;;;;14.69;51.66;99980.03;5079121;28;45283;-49
2022/04/06 15:44:55;;;;;;;;;4.00;3.00;;;;;14.76;51.65;99975.00;5079677;28;45248;-52
2022/04/06 15:47:22;;;;;;;;;2.00;2.00;;;;;14.71;51.43;99986.16;5079264;28;45443;-51
2022/04/06 15:49:50;;;;;;;;;2.50;2.50;;;;;14.57;52.05;99972.84;5079473;28;46268;-47
2022/04/06 15:52:16;;;;;;;;;2.00;2.00;;;;;14.47;52.06;99979.00;5079153;28;45343;-50
2022/04/06 15:54:43;;;;;;;;;2.25;1.25;;;;;14.38;52.78;99961.66;5068249;28;45425;-51
2022/04/06 15:57:09;;;;;;;;;1.00;1.00;;;;;14.20;53.13;99965.72;5058646;28;45934;-58
2022/04/06 15:59:34;;;;;;;;;1.75;1.75;;;;;14.09;53.88;99965.63;5058868;28;45383;-59
2022/04/06 16:02:00;;;;;;;;;2.00;1.00;;;;;13.95;54.18;99945.09;5058316;28;45290;-58
2022/04/06 16:04:25;;;;;;;;;2.00;2.00;;;;;13.96;54.95;99966.50;5059085;28;45374;-58
2022/04/06 16:06:51;;;;;;;;;4.00;2.50;;;;;13.97;54.85;99954.75;5057665;28;45377;-59
2022/04/06 16:09:16;;;;;;;;;2.00;2.00;;;;;13.98;55.09;99948.41;5058689;28;45330;-59
2022/04/06 16:11:42;;;;;;;;;2.00;2.00;;;;;13.90;55.09;99952.63;5058630;28;45424;-58